Terminal Aerodrome Forecast
Issued by NWS

Home | Current Version | Previous Version | Graphics & Text | Print | Product List | Glossary On
Versions: 1 2 3 4 5 6 7 8 9 10 11 12 13 14 15 16 17 18 19 20 21 22 23 24 25 26 27 28
000
FTUS43 KLSX 301456 AAA
TAFCPS
TAF AMD
KCPS 301456Z 3015/0112 26006KT P6SM SCT100
     FM301700 29011KT P6SM SCT040 SCT100
     FM010200 VRB05KT P6SM SCT080
     FM011000 10006KT 6SM -SHRA OVC040=

USA.gov is the U.S. government's official web portal to all federal, state and local government web resources and services.